sensor_id;sensor_type;location;lat;lon;timestamp;pressure;altitude;pressure_sealevel;temperature;humidity
64354;BME280;50681;53.334;-6.536;2023-11-21T00:01:40;101794.38;;;10.64;100.00
64354;BME280;50681;53.334;-6.536;2023-11-21T00:04:05;101797.31;;;10.57;100.00
64354;BME280;50681;53.334;-6.536;2023-11-21T00:06:32;101793.97;;;10.83;100.00
64354;BME280;50681;53.334;-6.536;2023-11-21T00:08:58;101802.56;;;10.74;100.00
64354;BME280;50681;53.334;-6.536;2023-11-21T00:11:23;101811.75;;;10.79;100.00
64354;BME280;50681;53.334;-6.536;2023-11-21T00:13:50;101823.13;;;10.81;100.00
64354;BME280;50681;53.334;-6.536;2023-11-21T00:16:16;101813.69;;;10.83;100.00
64354;BME280;50681;53.334;-6.536;2023-11-21T00:18:41;101820.41;;;10.81;100.00
64354;BME280;50681;53.334;-6.536;2023-11-21T00:21:08;101819.09;;;10.83;100.00
64354;BME280;50681;53.334;-6.536;2023-11-21T00:23:34;101830.72;;;10.84;100.00
64354;BME280;50681;53.334;-6.536;2023-11-21T00:25:59;101843.00;;;10.64;100.00
64354;BME280;50681;53.334;-6.536;2023-11-21T00:28:26;101842.88;;;10.49;100.00
64354;BME280;50681;53.334;-6.536;2023-11-21T00:30:51;101854.56;;;10.92;100.00
64354;BME280;50681;53.334;-6.536;2023-11-21T00:33:16;101856.78;;;10.35;100.00
64354;BME280;50681;53.334;-6.536;2023-11-21T00:35:42;101858.94;;;10.66;100.00
64354;BME280;50681;53.334;-6.536;2023-11-21T00:38:07;101861.84;;;10.92;100.00
64354;BME280;50681;53.334;-6.536;2023-11-21T00:40:34;101861.31;;;10.90;100.00
64354;BME280;50681;53.334;-6.536;2023-11-21T00:42:59;101862.34;;;10.83;100.00
64354;BME280;50681;53.334;-6.536;2023-11-21T00:45:24;101871.56;;;10.55;100.00
64354;BME280;50681;53.334;-6.536;2023-11-21T00:47:51;101881.91;;;10.68;100.00
64354;BME280;50681;53.334;-6.536;2023-11-21T00:50:16;101870.97;;;10.48;100.00
64354;BME280;50681;53.334;-6.536;2023-11-21T00:52:43;101876.09;;;10.82;100.00
64354;BME280;50681;53.334;-6.536;2023-11-21T00:55:08;101876.75;;;10.34;100.00
64354;BME280;50681;53.334;-6.536;2023-11-21T00:57:39;101870.50;;;10.34;100.00
64354;BME280;50681;53.334;-6.536;2023-11-21T01:00:05;101867.69;;;10.78;100.00
64354;BME280;50681;53.334;-6.536;2023-11-21T01:02:42;101881.09;;;11.00;100.00
64354;BME280;50681;53.334;-6.536;2023-11-21T01:05:09;101869.72;;;10.61;100.00
64354;BME280;50681;53.334;-6.536;2023-11-21T01:07:34;101878.59;;;10.56;100.00
64354;BME280;50681;53.334;-6.536;2023-11-21T01:10:02;101897.66;;;10.77;100.00
64354;BME280;50681;53.334;-6.536;2023-11-21T01:12:28;101896.19;;;10.36;100.00
64354;BME280;50681;53.334;-6.536;2023-11-21T01:14:53;101916.25;;;10.68;100.00
64354;BME280;50681;53.334;-6.536;2023-11-21T01:17:19;101917.44;;;10.50;100.00
64354;BME280;50681;53.334;-6.536;2023-11-21T01:19:44;101920.19;;;10.55;100.00
64354;BME280;50681;53.334;-6.536;2023-11-21T01:22:10;101928.13;;;10.39;100.00
64354;BME280;50681;53.334;-6.536;2023-11-21T01:24:37;101919.25;;;10.44;100.00
64354;BME280;50681;53.334;-6.536;2023-11-21T01:27:02;101919.44;;;10.37;100.00
64354;BME280;50681;53.334;-6.536;2023-11-21T01:29:29;101923.28;;;10.19;100.00
64354;BME280;50681;53.334;-6.536;2023-11-21T01:31:55;101939.28;;;10.26;100.00
64354;BME280;50681;53.334;-6.536;2023-11-21T01:34:22;101934.56;;;10.16;100.00
64354;BME280;50681;53.334;-6.536;2023-11-21T01:36:50;101941.84;;;10.38;100.00
64354;BME280;50681;53.334;-6.536;2023-11-21T01:39:16;101942.59;;;10.33;100.00
64354;BME280;50681;53.334;-6.536;2023-11-21T01:41:48;101941.97;;;10.26;100.00
64354;BME280;50681;53.334;-6.536;2023-11-21T01:44:14;101943.66;;;10.32;100.00
64354;BME280;50681;53.334;-6.536;2023-11-21T01:46:40;101957.72;;;10.34;100.00
64354;BME280;50681;53.334;-6.536;2023-11-21T01:49:06;101965.38;;;10.20;100.00
64354;BME280;50681;53.334;-6.536;2023-11-21T01:51:34;101952.91;;;10.14;100.00
64354;BME280;50681;53.334;-6.536;2023-11-21T01:54:00;101940.41;;;9.85;100.00
64354;BME280;50681;53.334;-6.536;2023-11-21T01:56:25;101942.81;;;10.04;100.00
64354;BME280;50681;53.334;-6.536;2023-11-21T01:58:51;101942.25;;;10.02;100.00
64354;BME280;50681;53.334;-6.536;2023-11-21T02:01:16;101947.06;;;10.00;100.00
64354;BME280;50681;53.334;-6.536;2023-11-21T02:03:44;101945.56;;;10.09;100.00
64354;BME280;50681;53.334;-6.536;2023-11-21T02:06:09;101961.81;;;10.14;100.00
64354;BME280;50681;53.334;-6.536;2023-11-21T02:08:35;101958.00;;;10.10;100.00
64354;BME280;50681;53.334;-6.536;2023-11-21T02:11:02;101952.22;;;10.24;100.00
64354;BME280;50681;53.334;-6.536;2023-11-21T02:13:28;101958.94;;;9.99;100.00
64354;BME280;50681;53.334;-6.536;2023-11-21T02:15:53;101957.91;;;10.27;100.00
64354;BME280;50681;53.334;-6.536;2023-11-21T02:18:19;101961.88;;;10.20;100.00
64354;BME280;50681;53.334;-6.536;2023-11-21T02:20:45;101962.63;;;9.93;100.00
64354;BME280;50681;53.334;-6.536;2023-11-21T02:23:11;101962.50;;;9.82;100.00
64354;BME280;50681;53.334;-6.536;2023-11-21T02:27:46;101983.22;;;9.99;100.00
64354;BME280;50681;53.334;-6.536;2023-11-21T02:30:14;101976.00;;;10.05;100.00
64354;BME280;50681;53.334;-6.536;2023-11-21T02:32:39;101984.38;;;9.86;100.00
64354;BME280;50681;53.334;-6.536;2023-11-21T02:35:08;101990.13;;;9.90;100.00
64354;BME280;50681;53.334;-6.536;2023-11-21T02:37:33;101995.00;;;9.93;100.00
64354;BME280;50681;53.334;-6.536;2023-11-21T02:40:00;102001.41;;;9.87;100.00
64354;BME280;50681;53.334;-6.536;2023-11-21T02:42:27;102004.03;;;9.81;100.00
64354;BME280;50681;53.334;-6.536;2023-11-21T02:44:53;102005.47;;;9.89;100.00
64354;BME280;50681;53.334;-6.536;2023-11-21T02:47:18;102007.38;;;9.89;100.00
64354;BME280;50681;53.334;-6.536;2023-11-21T02:49:43;102018.66;;;9.85;100.00
64354;BME280;50681;53.334;-6.536;2023-11-21T02:52:09;102030.56;;;9.90;100.00
64354;BME280;50681;53.334;-6.536;2023-11-21T02:54:34;102012.53;;;9.73;100.00
64354;BME280;50681;53.334;-6.536;2023-11-21T02:57:03;102036.06;;;9.95;100.00
64354;BME280;50681;53.334;-6.536;2023-11-21T02:59:29;102039.59;;;9.78;100.00
64354;BME280;50681;53.334;-6.536;2023-11-21T03:01:55;102046.00;;;9.94;100.00
64354;BME280;50681;53.334;-6.536;2023-11-21T03:04:22;102047.34;;;9.75;100.00
64354;BME280;50681;53.334;-6.536;2023-11-21T03:06:47;102057.97;;;9.81;100.00
64354;BME280;50681;53.334;-6.536;2023-11-21T03:09:13;102051.38;;;9.72;100.00
64354;BME280;50681;53.334;-6.536;2023-11-21T03:11:38;102057.31;;;9.74;100.00
64354;BME280;50681;53.334;-6.536;2023-11-21T03:14:04;102050.22;;;9.68;100.00
64354;BME280;50681;53.334;-6.536;2023-11-21T03:16:31;102043.59;;;9.59;100.00
64354;BME280;50681;53.334;-6.536;2023-11-21T03:18:57;102053.06;;;9.61;100.00
64354;BME280;50681;53.334;-6.536;2023-11-21T03:21:22;102053.72;;;9.51;100.00
64354;BME280;50681;53.334;-6.536;2023-11-21T03:23:47;102063.84;;;9.44;100.00
64354;BME280;50681;53.334;-6.536;2023-11-21T03:26:13;102072.03;;;9.49;100.00
64354;BME280;50681;53.334;-6.536;2023-11-21T03:28:39;102082.41;;;9.58;100.00
64354;BME280;50681;53.334;-6.536;2023-11-21T03:31:05;102082.47;;;9.46;100.00
64354;BME280;50681;53.334;-6.536;2023-11-21T03:33:32;102097.09;;;9.50;100.00
64354;BME280;50681;53.334;-6.536;2023-11-21T03:35:57;102090.47;;;9.40;100.00
64354;BME280;50681;53.334;-6.536;2023-11-21T03:38:23;102091.78;;;9.38;100.00
64354;BME280;50681;53.334;-6.536;2023-11-21T03:40:48;102086.88;;;9.35;100.00
64354;BME280;50681;53.334;-6.536;2023-11-21T03:43:14;102085.16;;;9.29;100.00
64354;BME280;50681;53.334;-6.536;2023-11-21T03:45:39;102086.63;;;9.19;100.00
64354;BME280;50681;53.334;-6.536;2023-11-21T03:48:06;102080.16;;;9.20;100.00
64354;BME280;50681;53.334;-6.536;2023-11-21T03:50:32;102092.47;;;9.16;100.00
64354;BME280;50681;53.334;-6.536;2023-11-21T03:52:57;102094.69;;;9.19;100.00
64354;BME280;50681;53.334;-6.536;2023-11-21T03:55:22;102095.84;;;9.23;100.00
64354;BME280;50681;53.334;-6.536;2023-11-21T03:57:50;102102.38;;;9.27;100.00
64354;BME280;50681;53.334;-6.536;2023-11-21T04:00:16;102095.94;;;9.29;100.00
64354;BME280;50681;53.334;-6.536;2023-11-21T04:02:42;102097.31;;;9.31;100.00
64354;BME280;50681;53.334;-6.536;2023-11-21T04:05:08;102097.09;;;9.33;100.00
64354;BME280;50681;53.334;-6.536;2023-11-21T04:07:34;102097.22;;;9.26;100.00
64354;BME280;50681;53.334;-6.536;2023-11-21T04:10:00;102086.84;;;9.18;100.00
64354;BME280;50681;53.334;-6.536;2023-11-21T04:12:25;102091.81;;;9.09;100.00
64354;BME280;50681;53.334;-6.536;2023-11-21T04:14:51;102102.72;;;9.02;100.00
64354;BME280;50681;53.334;-6.536;2023-11-21T04:17:19;102096.75;;;9.29;100.00
64354;BME280;50681;53.334;-6.536;2023-11-21T04:19:45;102109.25;;;9.06;100.00
64354;BME280;50681;53.334;-6.536;2023-11-21T04:22:11;102102.19;;;8.88;100.00
64354;BME280;50681;53.334;-6.536;2023-11-21T04:24:36;102100.88;;;8.91;100.00
64354;BME280;50681;53.334;-6.536;2023-11-21T04:27:02;102117.78;;;8.86;100.00
64354;BME280;50681;53.334;-6.536;2023-11-21T04:29:28;102129.16;;;8.76;100.00
64354;BME280;50681;53.334;-6.536;2023-11-21T04:31:54;102124.97;;;8.68;100.00
64354;BME280;50681;53.334;-6.536;2023-11-21T04:34:19;102117.94;;;8.67;100.00
64354;BME280;50681;53.334;-6.536;2023-11-21T04:36:44;102127.53;;;8.63;100.00
64354;BME280;50681;53.334;-6.536;2023-11-21T04:39:10;102125.66;;;8.76;100.00
64354;BME280;50681;53.334;-6.536;2023-11-21T04:41:36;102125.97;;;8.79;100.00
64354;BME280;50681;53.334;-6.536;2023-11-21T04:44:05;102122.59;;;8.84;100.00
64354;BME280;50681;53.334;-6.536;2023-11-21T04:46:30;102124.81;;;8.75;100.00
64354;BME280;50681;53.334;-6.536;2023-11-21T04:48:57;102126.38;;;9.00;100.00
64354;BME280;50681;53.334;-6.536;2023-11-21T04:51:22;102128.13;;;9.06;100.00
64354;BME280;50681;53.334;-6.536;2023-11-21T04:53:48;102140.63;;;9.12;100.00
64354;BME280;50681;53.334;-6.536;2023-11-21T04:56:13;102146.66;;;9.03;100.00
64354;BME280;50681;53.334;-6.536;2023-11-21T04:58:38;102150.13;;;9.15;100.00
64354;BME280;50681;53.334;-6.536;2023-11-21T05:01:05;102160.28;;;9.25;100.00
64354;BME280;50681;53.334;-6.536;2023-11-21T05:03:32;102162.56;;;9.16;100.00
64354;BME280;50681;53.334;-6.536;2023-11-21T05:05:57;102169.75;;;8.87;100.00
64354;BME280;50681;53.334;-6.536;2023-11-21T05:08:25;102173.22;;;9.11;100.00
64354;BME280;50681;53.334;-6.536;2023-11-21T05:10:51;102173.22;;;9.11;100.00
64354;BME280;50681;53.334;-6.536;2023-11-21T05:13:17;102177.78;;;9.10;100.00
64354;BME280;50681;53.334;-6.536;2023-11-21T05:15:44;102179.78;;;9.15;100.00
64354;BME280;50681;53.334;-6.536;2023-11-21T05:18:10;102188.19;;;9.19;100.00
64354;BME280;50681;53.334;-6.536;2023-11-21T05:20:35;102188.00;;;9.37;100.00
64354;BME280;50681;53.334;-6.536;2023-11-21T05:23:01;102192.59;;;9.37;100.00
64354;BME280;50681;53.334;-6.536;2023-11-21T05:25:27;102188.75;;;9.33;100.00
64354;BME280;50681;53.334;-6.536;2023-11-21T05:27:52;102197.78;;;9.26;100.00
64354;BME280;50681;53.334;-6.536;2023-11-21T05:30:20;102203.66;;;9.23;100.00
64354;BME280;50681;53.334;-6.536;2023-11-21T05:32:46;102211.28;;;9.15;100.00
64354;BME280;50681;53.334;-6.536;2023-11-21T05:35:12;102208.78;;;9.25;100.00
64354;BME280;50681;53.334;-6.536;2023-11-21T05:37:41;102224.69;;;9.38;100.00
64354;BME280;50681;53.334;-6.536;2023-11-21T05:40:07;102226.00;;;9.36;100.00
64354;BME280;50681;53.334;-6.536;2023-11-21T05:42:34;102219.75;;;9.06;100.00
64354;BME280;50681;53.334;-6.536;2023-11-21T05:45:00;102223.38;;;9.12;100.00
64354;BME280;50681;53.334;-6.536;2023-11-21T05:47:36;102227.06;;;9.35;100.00
64354;BME280;50681;53.334;-6.536;2023-11-21T05:50:03;102215.13;;;9.19;100.00
64354;BME280;50681;53.334;-6.536;2023-11-21T05:52:28;102221.47;;;9.24;100.00
64354;BME280;50681;53.334;-6.536;2023-11-21T05:54:54;102222.38;;;9.30;100.00
64354;BME280;50681;53.334;-6.536;2023-11-21T05:57:19;102232.47;;;9.35;100.00
64354;BME280;50681;53.334;-6.536;2023-11-21T05:59:44;102232.94;;;9.32;100.00
64354;BME280;50681;53.334;-6.536;2023-11-21T06:02:11;102223.38;;;9.12;100.00
64354;BME280;50681;53.334;-6.536;2023-11-21T06:04:36;102240.56;;;9.23;100.00
64354;BME280;50681;53.334;-6.536;2023-11-21T06:07:02;102250.06;;;9.14;100.00
64354;BME280;50681;53.334;-6.536;2023-11-21T06:09:28;102237.53;;;9.07;100.00
64354;BME280;50681;53.334;-6.536;2023-11-21T06:11:53;102244.25;;;9.05;100.00
64354;BME280;50681;53.334;-6.536;2023-11-21T06:14:18;102226.06;;;9.12;100.00
64354;BME280;50681;53.334;-6.536;2023-11-21T06:16:44;102232.56;;;8.87;100.00
64354;BME280;50681;53.334;-6.536;2023-11-21T06:19:10;102245.91;;;8.70;100.00
64354;BME280;50681;53.334;-6.536;2023-11-21T06:21:36;102237.00;;;8.58;100.00
64354;BME280;50681;53.334;-6.536;2023-11-21T06:24:01;102237.72;;;8.77;100.00
64354;BME280;50681;53.334;-6.536;2023-11-21T06:26:27;102246.97;;;8.81;100.00
64354;BME280;50681;53.334;-6.536;2023-11-21T06:28:53;102244.16;;;8.76;100.00
64354;BME280;50681;53.334;-6.536;2023-11-21T06:31:19;102246.50;;;8.84;100.00
64354;BME280;50681;53.334;-6.536;2023-11-21T06:33:44;102225.63;;;8.79;100.00
64354;BME280;50681;53.334;-6.536;2023-11-21T06:36:10;102248.94;;;8.97;100.00
64354;BME280;50681;53.334;-6.536;2023-11-21T06:38:36;102230.31;;;8.96;100.00
64354;BME280;50681;53.334;-6.536;2023-11-21T06:41:02;102245.25;;;9.16;100.00
64354;BME280;50681;53.334;-6.536;2023-11-21T06:43:29;102258.50;;;9.17;100.00
64354;BME280;50681;53.334;-6.536;2023-11-21T06:45:56;102271.03;;;9.11;100.00
64354;BME280;50681;53.334;-6.536;2023-11-21T06:48:22;102276.34;;;8.94;100.00
64354;BME280;50681;53.334;-6.536;2023-11-21T06:50:47;102262.53;;;8.79;100.00
64354;BME280;50681;53.334;-6.536;2023-11-21T06:53:13;102272.13;;;8.63;100.00
64354;BME280;50681;53.334;-6.536;2023-11-21T06:55:38;102278.56;;;8.50;100.00
64354;BME280;50681;53.334;-6.536;2023-11-21T06:58:04;102274.63;;;8.22;100.00
64354;BME280;50681;53.334;-6.536;2023-11-21T07:00:30;102267.69;;;8.14;100.00
64354;BME280;50681;53.334;-6.536;2023-11-21T07:02:56;102276.34;;;8.16;100.00
64354;BME280;50681;53.334;-6.536;2023-11-21T07:05:22;102283.28;;;8.24;100.00
64354;BME280;50681;53.334;-6.536;2023-11-21T07:07:48;102289.34;;;8.19;100.00
64354;BME280;50681;53.334;-6.536;2023-11-21T07:10:14;102282.66;;;8.52;100.00
64354;BME280;50681;53.334;-6.536;2023-11-21T07:12:39;102289.25;;;8.26;100.00
64354;BME280;50681;53.334;-6.536;2023-11-21T07:15:06;102289.50;;;8.36;100.00
64354;BME280;50681;53.334;-6.536;2023-11-21T07:17:34;102290.31;;;8.37;100.00
64354;BME280;50681;53.334;-6.536;2023-11-21T07:20:01;102300.22;;;8.13;100.00
64354;BME280;50681;53.334;-6.536;2023-11-21T07:22:26;102296.84;;;7.87;100.00
64354;BME280;50681;53.334;-6.536;2023-11-21T07:24:51;102295.56;;;7.89;100.00
64354;BME280;50681;53.334;-6.536;2023-11-21T07:27:17;102308.06;;;7.84;100.00
64354;BME280;50681;53.334;-6.536;2023-11-21T07:29:42;102310.28;;;7.87;100.00
64354;BME280;50681;53.334;-6.536;2023-11-21T07:32:08;102312.84;;;7.82;100.00
64354;BME280;50681;53.334;-6.536;2023-11-21T07:34:34;102329.25;;;8.22;100.00
64354;BME280;50681;53.334;-6.536;2023-11-21T07:37:00;102324.47;;;7.94;100.00
64354;BME280;50681;53.334;-6.536;2023-11-21T07:39:25;102321.88;;;7.87;100.00
64354;BME280;50681;53.334;-6.536;2023-11-21T07:41:50;102323.41;;;7.95;100.00
64354;BME280;50681;53.334;-6.536;2023-11-21T07:44:17;102338.66;;;8.01;100.00
64354;BME280;50681;53.334;-6.536;2023-11-21T07:46:45;102343.06;;;7.95;100.00
64354;BME280;50681;53.334;-6.536;2023-11-21T07:49:11;102352.56;;;7.98;100.00
64354;BME280;50681;53.334;-6.536;2023-11-21T07:51:40;102347.50;;;7.90;100.00
64354;BME280;50681;53.334;-6.536;2023-11-21T07:54:05;102349.72;;;7.93;100.00
64354;BME280;50681;53.334;-6.536;2023-11-21T07:56:30;102344.31;;;7.81;100.00
64354;BME280;50681;53.334;-6.536;2023-11-21T07:58:56;102352.88;;;7.90;100.00
64354;BME280;50681;53.334;-6.536;2023-11-21T08:01:21;102361.97;;;7.89;100.00
64354;BME280;50681;53.334;-6.536;2023-11-21T08:03:47;102358.84;;;7.92;100.00
64354;BME280;50681;53.334;-6.536;2023-11-21T08:06:16;102366.09;;;7.91;100.00
64354;BME280;50681;53.334;-6.536;2023-11-21T08:08:42;102367.97;;;7.91;100.00
64354;BME280;50681;53.334;-6.536;2023-11-21T08:11:08;102376.31;;;8.01;100.00
64354;BME280;50681;53.334;-6.536;2023-11-21T08:13:35;102380.78;;;8.07;100.00
64354;BME280;50681;53.334;-6.536;2023-11-21T08:16:00;102379.09;;;7.94;100.00
64354;BME280;50681;53.334;-6.536;2023-11-21T08:18:30;102396.78;;;8.02;100.00
64354;BME280;50681;53.334;-6.536;2023-11-21T08:20:55;102387.44;;;8.05;100.00
64354;BME280;50681;53.334;-6.536;2023-11-21T08:23:21;102405.59;;;8.09;100.00
64354;BME280;50681;53.334;-6.536;2023-11-21T08:25:50;102396.94;;;8.07;100.00
64354;BME280;50681;53.334;-6.536;2023-11-21T08:28:16;102391.63;;;8.01;100.00
64354;BME280;50681;53.334;-6.536;2023-11-21T08:30:41;102384.97;;;8.03;100.00
64354;BME280;50681;53.334;-6.536;2023-11-21T08:33:07;102390.94;;;8.05;100.00
64354;BME280;50681;53.334;-6.536;2023-11-21T08:35:37;102390.72;;;8.07;100.00
64354;BME280;50681;53.334;-6.536;2023-11-21T08:38:03;102386.16;;;8.07;100.00
64354;BME280;50681;53.334;-6.536;2023-11-21T08:40:32;102394.31;;;8.50;100.00
64354;BME280;50681;53.334;-6.536;2023-11-21T08:42:58;102407.81;;;8.31;100.00
64354;BME280;50681;53.334;-6.536;2023-11-21T08:45:26;102418.59;;;8.13;100.00
64354;BME280;50681;53.334;-6.536;2023-11-21T08:47:51;102419.94;;;8.22;100.00
64354;BME280;50681;53.334;-6.536;2023-11-21T08:50:17;102424.53;;;8.33;100.00
64354;BME280;50681;53.334;-6.536;2023-11-21T08:52:44;102420.41;;;8.49;100.00
64354;BME280;50681;53.334;-6.536;2023-11-21T08:55:11;102432.66;;;8.45;100.00
64354;BME280;50681;53.334;-6.536;2023-11-21T08:57:38;102436.63;;;8.43;100.00
64354;BME280;50681;53.334;-6.536;2023-11-21T09:00:06;102439.78;;;8.70;100.00
64354;BME280;50681;53.334;-6.536;2023-11-21T09:02:37;102436.16;;;8.64;100.00
64354;BME280;50681;53.334;-6.536;2023-11-21T09:05:03;102453.69;;;8.97;100.00
64354;BME280;50681;53.334;-6.536;2023-11-21T09:07:29;102444.50;;;8.75;100.00
64354;BME280;50681;53.334;-6.536;2023-11-21T09:09:55;102451.41;;;8.82;100.00
64354;BME280;50681;53.334;-6.536;2023-11-21T09:12:20;102445.81;;;8.84;100.00
64354;BME280;50681;53.334;-6.536;2023-11-21T09:14:46;102438.16;;;8.69;100.00
64354;BME280;50681;53.334;-6.536;2023-11-21T09:17:11;102438.28;;;8.74;100.00
64354;BME280;50681;53.334;-6.536;2023-11-21T09:19:40;102443.25;;;9.01;100.00
64354;BME280;50681;53.334;-6.536;2023-11-21T09:22:06;102450.09;;;8.61;100.00
64354;BME280;50681;53.334;-6.536;2023-11-21T09:24:34;102446.28;;;8.81;100.00
64354;BME280;50681;53.334;-6.536;2023-11-21T09:27:00;102445.69;;;8.79;100.00
64354;BME280;50681;53.334;-6.536;2023-11-21T09:29:26;102460.00;;;8.91;100.00
64354;BME280;50681;53.334;-6.536;2023-11-21T09:31:51;102458.03;;;9.10;100.00
64354;BME280;50681;53.334;-6.536;2023-11-21T09:34:17;102440.88;;;8.81;100.00
64354;BME280;50681;53.334;-6.536;2023-11-21T09:36:47;102451.03;;;9.33;100.00
64354;BME280;50681;53.334;-6.536;2023-11-21T09:39:13;102443.53;;;9.23;100.00
64354;BME280;50681;53.334;-6.536;2023-11-21T09:41:50;102452.56;;;9.65;100.00
64354;BME280;50681;53.334;-6.536;2023-11-21T09:44:23;102459.84;;;9.64;100.00
64354;BME280;50681;53.334;-6.536;2023-11-21T09:46:54;102454.94;;;9.49;100.00
64354;BME280;50681;53.334;-6.536;2023-11-21T09:49:23;102447.03;;;9.83;100.00
64354;BME280;50681;53.334;-6.536;2023-11-21T09:51:53;102437.31;;;9.82;100.00
64354;BME280;50681;53.334;-6.536;2023-11-21T09:54:20;102448.22;;;9.76;100.00
64354;BME280;50681;53.334;-6.536;2023-11-21T09:56:47;102439.75;;;9.84;100.00
64354;BME280;50681;53.334;-6.536;2023-11-21T09:59:13;102432.91;;;10.05;100.00
64354;BME280;50681;53.334;-6.536;2023-11-21T10:01:41;102436.31;;;10.12;100.00
64354;BME280;50681;53.334;-6.536;2023-11-21T10:04:08;102440.28;;;10.10;100.00
64354;BME280;50681;53.334;-6.536;2023-11-21T10:06:39;102439.69;;;10.08;100.00
64354;BME280;50681;53.334;-6.536;2023-11-21T10:09:10;102439.69;;;10.20;100.00
64354;BME280;50681;53.334;-6.536;2023-11-21T10:11:41;102441.91;;;10.23;100.00
64354;BME280;50681;53.334;-6.536;2023-11-21T10:14:08;102437.72;;;10.03;100.00
64354;BME280;50681;53.334;-6.536;2023-11-21T10:16:36;102421.25;;;10.17;100.00
64354;BME280;50681;53.334;-6.536;2023-11-21T10:19:05;102434.00;;;10.33;100.00
64354;BME280;50681;53.334;-6.536;2023-11-21T10:21:33;102426.13;;;10.43;100.00
64354;BME280;50681;53.334;-6.536;2023-11-21T10:23:59;102431.75;;;10.42;100.00
64354;BME280;50681;53.334;-6.536;2023-11-21T10:26:26;102436.69;;;10.62;100.00
64354;BME280;50681;53.334;-6.536;2023-11-21T10:28:58;102436.16;;;10.60;100.00
64354;BME280;50681;53.334;-6.536;2023-11-21T10:31:26;102447.44;;;10.57;100.00
64354;BME280;50681;53.334;-6.536;2023-11-21T10:33:54;102458.72;;;10.54;100.00
64354;BME280;50681;53.334;-6.536;2023-11-21T10:37:21;102465.09;;;10.48;100.00
64354;BME280;50681;53.334;-6.536;2023-11-21T10:43:25;102454.00;;;10.78;100.00
64354;BME280;50681;53.334;-6.536;2023-11-21T10:45:51;102452.84;;;10.57;100.00
64354;BME280;50681;53.334;-6.536;2023-11-21T10:48:18;102453.38;;;11.05;100.00
64354;BME280;50681;53.334;-6.536;2023-11-21T10:50:45;102463.75;;;11.30;100.00
64354;BME280;50681;53.334;-6.536;2023-11-21T10:53:28;102465.56;;;11.08;100.00
64354;BME280;50681;53.334;-6.536;2023-11-21T10:56:05;102473.03;;;11.35;100.00
64354;BME280;50681;53.334;-6.536;2023-11-21T10:58:31;102469.97;;;11.48;100.00
64354;BME280;50681;53.334;-6.536;2023-11-21T11:00:58;102478.59;;;11.45;100.00
64354;BME280;50681;53.334;-6.536;2023-11-21T11:03:25;102468.69;;;11.16;100.00
64354;BME280;50681;53.334;-6.536;2023-11-21T11:05:52;102470.31;;;11.35;100.00
64354;BME280;50681;53.334;-6.536;2023-11-21T11:08:21;102468.25;;;11.42;100.00
64354;BME280;50681;53.334;-6.536;2023-11-21T11:10:51;102476.31;;;11.20;100.00
64354;BME280;50681;53.334;-6.536;2023-11-21T11:13:17;102499.50;;;11.15;100.00
64354;BME280;50681;53.334;-6.536;2023-11-21T11:15:47;102495.66;;;11.45;100.00
64354;BME280;50681;53.334;-6.536;2023-11-21T11:18:12;102493.38;;;11.37;100.00
64354;BME280;50681;53.334;-6.536;2023-11-21T11:26:46;102464.56;;;11.87;100.00
64354;BME280;50681;53.334;-6.536;2023-11-21T11:35:24;102475.25;;;12.16;100.00
64354;BME280;50681;53.334;-6.536;2023-11-21T11:37:42;102470.97;;;11.81;100.00
64354;BME280;50681;53.334;-6.536;2023-11-21T11:40:08;102455.56;;;11.82;100.00
64354;BME280;50681;53.334;-6.536;2023-11-21T11:42:36;102449.34;;;11.81;100.00
64354;BME280;50681;53.334;-6.536;2023-11-21T11:45:01;102449.13;;;12.27;100.00
64354;BME280;50681;53.334;-6.536;2023-11-21T11:47:30;102439.53;;;12.42;100.00
64354;BME280;50681;53.334;-6.536;2023-11-21T11:50:07;102443.81;;;12.65;100.00
64354;BME280;50681;53.334;-6.536;2023-11-21T11:52:51;102440.72;;;12.29;100.00
64354;BME280;50681;53.334;-6.536;2023-11-21T11:55:20;102432.66;;;11.89;100.00
64354;BME280;50681;53.334;-6.536;2023-11-21T11:57:48;102426.31;;;12.01;100.00
64354;BME280;50681;53.334;-6.536;2023-11-21T12:02:55;102427.75;;;12.31;100.00
64354;BME280;50681;53.334;-6.536;2023-11-21T12:05:26;102433.22;;;12.36;100.00
64354;BME280;50681;53.334;-6.536;2023-11-21T12:08:04;102432.34;;;12.30;100.00
64354;BME280;50681;53.334;-6.536;2023-11-21T12:10:31;102445.41;;;12.33;100.00
64354;BME280;50681;53.334;-6.536;2023-11-21T12:12:58;102456.38;;;11.82;100.00
64354;BME280;50681;53.334;-6.536;2023-11-21T12:15:25;102458.09;;;12.33;100.00
64354;BME280;50681;53.334;-6.536;2023-11-21T12:17:51;102441.41;;;12.41;100.00
64354;BME280;50681;53.334;-6.536;2023-11-21T12:20:22;102438.78;;;12.52;100.00
64354;BME280;50681;53.334;-6.536;2023-11-21T12:22:54;102437.53;;;12.59;100.00
64354;BME280;50681;53.334;-6.536;2023-11-21T12:25:25;102447.50;;;12.54;100.00
64354;BME280;50681;53.334;-6.536;2023-11-21T12:27:54;102463.13;;;12.46;100.00
64354;BME280;50681;53.334;-6.536;2023-11-21T12:30:21;102463.59;;;12.66;100.00
64354;BME280;50681;53.334;-6.536;2023-11-21T12:32:52;102461.91;;;12.59;100.00
64354;BME280;50681;53.334;-6.536;2023-11-21T12:35:19;102453.88;;;12.70;100.00
64354;BME280;50681;53.334;-6.536;2023-11-21T12:37:45;102453.47;;;12.83;100.00
64354;BME280;50681;53.334;-6.536;2023-11-21T12:40:11;102460.44;;;13.44;100.00
64354;BME280;50681;53.334;-6.536;2023-11-21T12:42:47;102464.41;;;13.31;100.00
64354;BME280;50681;53.334;-6.536;2023-11-21T12:47:50;102464.63;;;13.62;100.00
64354;BME280;50681;53.334;-6.536;2023-11-21T12:50:20;102467.31;;;13.57;100.00
64354;BME280;50681;53.334;-6.536;2023-11-21T12:52:49;102466.19;;;13.48;100.00
64354;BME280;50681;53.334;-6.536;2023-11-21T12:55:22;102467.38;;;13.30;100.00
64354;BME280;50681;53.334;-6.536;2023-11-21T12:57:49;102470.59;;;13.59;100.00